Time;durP1;ratioP1;P1;durP2;ratioP2;P2;SDS_P1;SDS_P2;PMS_P1;PMS_P2;Temp;Humidity;BMP_temperature;BMP_pressure;BME280_temperature;BME280_humidity;BME280_pressure;Samples;Min_cycle;Max_cycle;Signal;HPM_P1;HPM_P2
2022/12/24 00:00:57;;;;;;;;;5.00;3.33;;;;;-146.50;100.00;59256.41;5087058;27;45454;-78
2022/12/24 00:03:23;;;;;;;;;3.75;3.00;;;;;-146.50;100.00;59256.41;5073659;27;45641;-78
2022/12/24 00:05:48;;;;;;;;;6.50;4.00;;;;;-146.50;100.00;59256.41;5073972;27;45482;-77
2022/12/24 00:08:13;;;;;;;;;4.50;3.00;;;;;-146.50;100.00;59256.41;5075163;27;45541;-77
2022/12/24 00:10:39;;;;;;;;;6.50;5.50;;;;;-146.50;100.00;59256.41;5086586;27;45415;-79
2022/12/24 00:13:04;;;;;;;;;5.25;4.25;;;;;-146.50;100.00;59256.41;5075565;27;47458;-79
2022/12/24 00:15:29;;;;;;;;;7.00;3.00;;;;;-146.50;100.00;59256.41;5090390;27;45453;-79
2022/12/24 00:17:55;;;;;;;;;3.67;3.00;;;;;-146.50;100.00;59256.41;5081548;27;45954;-78
2022/12/24 00:20:20;;;;;;;;;3.67;3.67;;;;;-146.50;100.00;59256.41;5082882;27;45496;-77
2022/12/24 00:22:45;;;;;;;;;5.00;5.00;;;;;-146.50;100.00;59256.41;5086727;27;47457;-77
2022/12/24 00:25:11;;;;;;;;;4.50;3.50;;;;;-146.50;100.00;59256.41;5063903;27;45707;-78
2022/12/24 00:27:36;;;;;;;;;9.00;5.50;;;;;-146.50;100.00;59256.41;5073823;27;45671;-77
2022/12/24 00:30:02;;;;;;;;;3.33;3.33;;;;;-146.50;100.00;59256.41;5081459;27;45698;-77
2022/12/24 00:32:28;;;;;;;;;4.33;1.33;;;;;-146.50;100.00;59256.41;5081211;27;46261;-76
2022/12/24 00:34:53;;;;;;;;;5.75;3.25;;;;;-146.50;100.00;59256.41;5089228;27;45450;-73
2022/12/24 00:37:19;;;;;;;;;5.00;4.50;;;;;-146.50;100.00;59256.41;5074665;27;45806;-74
2022/12/24 00:39:44;;;;;;;;;5.67;4.00;;;;;-146.50;100.00;59256.41;5078700;27;45708;-74
2022/12/24 00:42:09;;;;;;;;;8.00;5.00;;;;;-146.50;100.00;59256.41;5084836;27;46170;-78
2022/12/24 00:44:35;;;;;;;;;4.00;3.00;;;;;-146.50;100.00;59256.41;5079883;27;46132;-75
2022/12/24 00:47:00;;;;;;;;;5.25;4.25;;;;;-146.50;100.00;59256.41;5082698;27;45405;-75
2022/12/24 00:49:25;;;;;;;;;5.00;3.00;;;;;-146.50;100.00;59256.41;5091063;27;45389;-75
2022/12/24 00:51:51;;;;;;;;;5.00;4.00;;;;;-146.50;100.00;59256.41;5080974;27;46042;-76
2022/12/24 00:54:16;;;;;;;;;9.00;5.25;;;;;-146.50;100.00;59256.41;5082329;27;45316;-75
2022/12/24 00:56:41;;;;;;;;;8.50;5.00;;;;;-146.50;100.00;59256.41;5087767;27;45379;-75
2022/12/24 00:59:07;;;;;;;;;5.00;4.33;;;;;-146.50;100.00;59256.41;5077057;27;45511;-76
2022/12/24 01:01:34;;;;;;;;;4.00;4.00;;;;;-146.50;100.00;59256.41;5084324;27;45617;-76
2022/12/24 01:06:43;;;;;;;;;6.33;3.67;;;;;-146.50;100.00;59256.41;5087924;27;45424;-76
2022/12/24 01:09:09;;;;;;;;;5.00;4.00;;;;;-146.50;100.00;59256.41;5074327;27;45410;-74
2022/12/24 01:11:34;;;;;;;;;7.00;5.00;;;;;-146.50;100.00;59256.41;5072931;27;45886;-75
2022/12/24 01:14:00;;;;;;;;;7.33;3.33;;;;;-146.50;100.00;59256.41;5073193;27;45497;-75
2022/12/24 01:16:25;;;;;;;;;4.00;4.00;;;;;-146.50;100.00;59256.41;5073471;27;45673;-76
2022/12/24 01:18:50;;;;;;;;;10.67;4.00;;;;;-146.50;100.00;59256.41;5072622;27;45391;-76
2022/12/24 01:21:16;;;;;;;;;5.00;3.00;;;;;-146.50;100.00;59256.41;5072992;27;45997;-77
2022/12/24 01:23:41;;;;;;;;;6.25;5.25;;;;;-146.50;100.00;59256.41;5072732;27;45661;-75
2022/12/24 01:26:08;;;;;;;;;2.33;2.33;;;;;-146.50;100.00;59256.41;5067469;28;46231;-74
2022/12/24 01:28:33;;;;;;;;;6.00;4.75;;;;;-146.50;100.00;59256.41;5073435;27;45400;-74
2022/12/24 01:30:59;;;;;;;;;9.25;2.75;;;;;-146.50;100.00;59256.41;5073026;27;45442;-75
2022/12/24 01:33:28;;;;;;;;;7.75;4.00;;;;;-146.50;100.00;59256.41;5073030;27;45354;-74
2022/12/24 01:35:53;;;;;;;;;8.50;3.50;;;;;-146.50;100.00;59256.41;5070545;27;45420;-74
2022/12/24 01:38:18;;;;;;;;;6.75;5.25;;;;;-146.50;100.00;59256.41;5073021;27;45425;-74
2022/12/24 01:43:30;;;;;;;;;2.00;0.67;;;;;-146.50;100.00;59256.41;5073224;27;45446;-75
2022/12/24 01:46:03;;;;;;;;;6.25;3.00;;;;;-146.50;100.00;59256.41;5073125;27;45554;-75
2022/12/24 01:48:42;;;;;;;;;6.75;4.00;;;;;-146.50;100.00;59256.41;5070517;27;45513;-75
2022/12/24 01:51:31;;;;;;;;;5.00;2.50;;;;;-146.50;100.00;59256.41;5070056;27;46563;-75
2022/12/24 01:54:02;;;;;;;;;6.25;5.00;;;;;-146.50;100.00;59256.41;5104130;27;45471;-74
2022/12/24 01:56:31;;;;;;;;;7.00;6.00;;;;;-146.50;100.00;59256.41;5072938;27;45451;-75
2022/12/24 01:59:03;;;;;;;;;9.00;4.00;;;;;-146.50;100.00;59256.41;5072647;27;45397;-75
2022/12/24 02:01:29;;;;;;;;;8.75;7.00;;;;;-146.50;100.00;59256.41;5072316;27;45488;-76
2022/12/24 02:03:54;;;;;;;;;6.50;5.00;;;;;-146.50;100.00;59256.41;5072809;27;45494;-75
2022/12/24 02:06:20;;;;;;;;;6.50;5.00;;;;;-146.50;100.00;59256.41;5072068;27;45560;-75
2022/12/24 02:08:46;;;;;;;;;5.33;5.00;;;;;-146.50;100.00;59256.41;5072851;27;45577;-76
2022/12/24 02:11:20;;;;;;;;;6.67;4.67;;;;;-146.50;100.00;59256.41;5070885;27;45593;-76
2022/12/24 02:13:54;;;;;;;;;5.00;5.00;;;;;-146.50;100.00;59256.41;5072074;27;45917;-75
2022/12/24 02:16:57;;;;;;;;;7.50;7.50;;;;;-146.50;100.00;59256.41;5072491;27;45451;-76
2022/12/24 02:19:41;;;;;;;;;7.00;3.75;;;;;-146.50;100.00;59256.41;5076167;27;45459;-76
2022/12/24 02:22:26;;;;;;;;;10.00;6.25;;;;;-146.50;100.00;59256.41;5108338;27;47116;-76
2022/12/24 02:25:19;;;;;;;;;11.75;8.25;;;;;-146.50;100.00;59256.41;5077519;27;45634;-76
2022/12/24 02:28:29;;;;;;;;;13.25;4.50;;;;;-146.50;100.00;59256.41;5075899;27;45490;-76
2022/12/24 02:31:02;;;;;;;;;5.00;4.75;;;;;-146.50;100.00;59256.41;5032538;28;45907;-76
2022/12/24 02:34:04;;;;;;;;;6.00;3.75;;;;;-146.50;100.00;59256.41;5031341;28;46031;-77
2022/12/24 02:36:36;;;;;;;;;6.75;5.50;;;;;-146.50;100.00;59256.41;5011315;28;45747;-75
2022/12/24 02:39:09;;;;;;;;;6.00;4.00;;;;;-146.50;100.00;59256.41;5028639;28;45803;-75
2022/12/24 02:44:27;;;;;;;;;10.50;5.00;;;;;-146.50;100.00;59256.41;5027070;28;46208;-76
2022/12/24 02:46:54;;;;;;;;;9.00;5.00;;;;;-146.50;100.00;59256.41;5033297;28;45539;-77
2022/12/24 02:49:20;;;;;;;;;8.75;5.00;;;;;-146.50;100.00;59256.41;5022174;28;45546;-77
2022/12/24 02:51:45;;;;;;;;;6.00;5.50;;;;;-146.50;100.00;59256.41;5033116;28;45528;-77
2022/12/24 02:54:12;;;;;;;;;6.00;4.00;;;;;-146.50;100.00;59256.41;5032759;28;45485;-77
2022/12/24 02:57:07;;;;;;;;;5.25;4.25;;;;;-146.50;100.00;59256.41;5026970;28;45436;-77
2022/12/24 02:59:38;;;;;;;;;4.00;4.00;;;;;-146.50;100.00;59256.41;5033446;28;45528;-75
2022/12/24 03:02:28;;;;;;;;;12.50;7.00;;;;;-146.50;100.00;59256.41;5033219;28;45570;-75
2022/12/24 03:05:10;;;;;;;;;5.00;3.50;;;;;-146.50;100.00;59256.41;5056372;28;46174;-75
2022/12/24 03:07:42;;;;;;;;;10.00;6.50;;;;;-146.50;100.00;59256.41;5076482;27;45616;-75
2022/12/24 03:11:03;;;;;;;;;9.25;5.25;;;;;-146.50;100.00;59256.41;5075977;27;45398;-76
2022/12/24 03:13:28;;;;;;;;;10.00;8.00;;;;;-146.50;100.00;59256.41;5005204;28;45478;-76
2022/12/24 03:15:54;;;;;;;;;9.25;5.25;;;;;-146.50;100.00;59256.41;4996066;28;48171;-76
2022/12/24 03:18:23;;;;;;;;;4.25;3.00;;;;;-146.50;100.00;59256.41;5012523;28;45758;-76
2022/12/24 03:21:08;;;;;;;;;8.00;5.75;;;;;-146.50;100.00;59256.41;5012747;28;45723;-76
2022/12/24 03:23:33;;;;;;;;;5.25;4.75;;;;;-146.50;100.00;59256.41;5013256;28;45461;-75
2022/12/24 03:26:03;;;;;;;;;5.00;2.33;;;;;-146.50;100.00;59256.41;4996262;28;45609;-76
2022/12/24 03:28:31;;;;;;;;;3.25;3.25;;;;;-146.50;100.00;59256.41;5012895;28;45636;-75
2022/12/24 03:31:00;;;;;;;;;8.25;6.50;;;;;-146.50;100.00;59256.41;5011311;28;45513;-76
2022/12/24 03:33:26;;;;;;;;;6.00;3.50;;;;;-146.50;100.00;59256.41;5011933;28;45653;-74
2022/12/24 03:35:51;;;;;;;;;5.00;3.67;;;;;-146.50;100.00;59256.41;5011985;28;45587;-76
2022/12/24 03:38:16;;;;;;;;;9.50;4.50;;;;;-146.50;100.00;59256.41;5012540;28;45728;-76
2022/12/24 03:40:42;;;;;;;;;6.00;4.67;;;;;-146.50;100.00;59256.41;5012747;28;45408;-77
2022/12/24 03:43:07;;;;;;;;;3.67;2.33;;;;;-146.50;100.00;59256.41;5013165;28;45534;-77
2022/12/24 03:45:33;;;;;;;;;10.33;5.00;;;;;-146.50;100.00;59256.41;5012366;28;47320;-77
2022/12/24 03:47:58;;;;;;;;;6.75;4.75;;;;;-146.50;100.00;59256.41;5020688;28;45277;-76
2022/12/24 03:50:23;;;;;;;;;8.00;5.00;;;;;-146.50;100.00;59256.41;5054974;28;45576;-76
2022/12/24 03:52:49;;;;;;;;;6.75;5.00;;;;;-146.50;100.00;59256.41;5061808;28;45553;-77
2022/12/24 03:55:14;;;;;;;;;5.00;4.00;;;;;-146.50;100.00;59256.41;5075470;27;46406;-77
2022/12/24 03:57:39;;;;;;;;;3.00;3.00;;;;;-146.50;100.00;59256.41;5073967;28;45357;-77
2022/12/24 04:00:05;;;;;;;;;5.00;3.00;;;;;-146.50;100.00;59256.41;5074859;27;45450;-76
2022/12/24 04:02:31;;;;;;;;;7.50;6.75;;;;;-146.50;100.00;59256.41;5074835;27;45477;-77
2022/12/24 04:04:56;;;;;;;;;6.67;5.67;;;;;-146.50;100.00;59256.41;5074024;27;45699;-77
2022/12/24 04:07:22;;;;;;;;;11.25;6.00;;;;;-146.50;100.00;59256.41;5074468;27;45534;-77
2022/12/24 04:09:47;;;;;;;;;4.00;2.33;;;;;-146.50;100.00;59256.41;5074863;28;45514;-76
2022/12/24 04:12:12;;;;;;;;;6.25;5.00;;;;;-146.50;100.00;59256.41;5073350;27;45476;-77
2022/12/24 04:14:38;;;;;;;;;7.00;6.00;;;;;-146.50;100.00;59256.41;5056621;27;45419;-78
2022/12/24 04:17:03;;;;;;;;;9.75;6.25;;;;;-146.50;100.00;59256.41;5063878;28;45708;-77
2022/12/24 04:19:28;;;;;;;;;6.00;5.00;;;;;-146.50;100.00;59256.41;5074317;27;45954;-77
2022/12/24 04:21:54;;;;;;;;;6.00;3.33;;;;;-146.50;100.00;59256.41;5073771;27;45560;-77
2022/12/24 04:24:19;;;;;;;;;9.00;5.50;;;;;-146.50;100.00;59256.41;5074355;28;46380;-76
2022/12/24 04:26:44;;;;;;;;;4.00;4.00;;;;;-146.50;100.00;59256.41;5074983;28;45412;-76
2022/12/24 04:29:10;;;;;;;;;3.00;3.00;;;;;-146.50;100.00;59256.41;5075194;27;45886;-76
2022/12/24 04:31:35;;;;;;;;;7.67;5.00;;;;;-146.50;100.00;59256.41;5074981;27;45300;-76
2022/12/24 04:34:01;;;;;;;;;10.00;6.50;;;;;-146.50;100.00;59256.41;5074241;27;47417;-76
2022/12/24 04:36:26;;;;;;;;;6.75;4.50;;;;;-146.50;100.00;59256.41;5075218;27;45551;-76
2022/12/24 04:38:51;;;;;;;;;4.00;3.00;;;;;-146.50;100.00;59256.41;5074955;27;45552;-76
2022/12/24 04:41:19;;;;;;;;;7.75;4.00;;;;;-146.50;100.00;59256.41;5074088;27;45381;-76
2022/12/24 04:43:45;;;;;;;;;5.00;4.33;;;;;-146.50;100.00;59256.41;5074155;28;46031;-76
2022/12/24 04:46:19;;;;;;;;;3.00;3.00;;;;;-146.50;100.00;59256.41;5063363;28;45388;-76
2022/12/24 04:48:47;;;;;;;;;4.67;4.67;;;;;-146.50;100.00;59256.41;5054681;28;45695;-76
2022/12/24 04:51:14;;;;;;;;;11.25;4.00;;;;;-146.50;100.00;59256.41;5054494;28;45424;-76
2022/12/24 04:53:40;;;;;;;;;13.25;5.00;;;;;-146.50;100.00;59256.41;5053080;28;48036;-76
2022/12/24 04:56:14;;;;;;;;;4.50;3.25;;;;;-146.50;100.00;59256.41;5073856;27;45484;-76
2022/12/24 04:58:40;;;;;;;;;7.00;5.00;;;;;-146.50;100.00;59256.41;5073342;28;45439;-77
2022/12/24 05:01:13;;;;;;;;;4.67;4.00;;;;;-146.50;100.00;59256.41;5074572;27;45374;-76
2022/12/24 05:03:39;;;;;;;;;5.25;4.00;;;;;-146.50;100.00;59256.41;5074452;27;46283;-77
2022/12/24 05:06:06;;;;;;;;;8.00;5.00;;;;;-146.50;100.00;59256.41;5073333;27;46136;-75
2022/12/24 05:08:33;;;;;;;;;5.75;5.75;;;;;-146.50;100.00;59256.41;5074358;28;45591;-75
2022/12/24 05:11:00;;;;;;;;;4.00;3.33;;;;;-146.50;100.00;59256.41;5074059;27;45573;-76
2022/12/24 05:13:26;;;;;;;;;5.25;3.75;;;;;-146.50;100.00;59256.41;5074272;27;45536;-76
2022/12/24 05:15:52;;;;;;;;;7.67;3.33;;;;;-146.50;100.00;59256.41;5072727;28;45759;-75
2022/12/24 05:18:17;;;;;;;;;8.00;3.50;;;;;-146.50;100.00;59256.41;5074082;27;45367;-75
2022/12/24 05:20:43;;;;;;;;;2.00;2.00;;;;;-146.50;100.00;59256.41;5073456;27;45431;-75
2022/12/24 05:28:43;;;;;;;;;11.00;3.75;;;;;-146.50;100.00;59256.41;5073684;28;45479;-75
2022/12/24 05:31:08;;;;;;;;;5.67;3.00;;;;;-146.50;100.00;59256.41;5073958;28;45381;-75
2022/12/24 05:33:33;;;;;;;;;5.25;4.00;;;;;-146.50;100.00;59256.41;5073303;27;47270;-74
2022/12/24 05:35:59;;;;;;;;;2.33;2.33;;;;;-146.50;100.00;59256.41;5073422;28;45467;-73
2022/12/24 05:38:24;;;;;;;;;7.75;5.75;;;;;-146.50;100.00;59256.41;5074188;27;45538;-74
2022/12/24 05:40:49;;;;;;;;;5.33;3.00;;;;;-146.50;100.00;59256.41;5072909;28;45425;-73
2022/12/24 05:43:15;;;;;;;;;9.50;6.00;;;;;-146.50;100.00;59256.41;5072820;27;46121;-74
2022/12/24 05:45:40;;;;;;;;;3.50;3.50;;;;;-146.50;100.00;59256.41;5073824;27;45710;-74
2022/12/24 05:48:07;;;;;;;;;7.50;5.00;;;;;-146.50;100.00;59256.41;5074055;28;45544;-75
2022/12/24 05:50:33;;;;;;;;;10.50;4.25;;;;;-146.50;100.00;59256.41;5073724;27;45405;-74
2022/12/24 05:52:58;;;;;;;;;8.33;5.00;;;;;-146.50;100.00;59256.41;5072569;27;45508;-76
2022/12/24 05:55:23;;;;;;;;;6.00;3.33;;;;;-146.50;100.00;59256.41;5075463;28;45460;-75
2022/12/24 05:57:49;;;;;;;;;5.00;4.00;;;;;-146.50;100.00;59256.41;5077247;27;45417;-74
2022/12/24 06:00:14;;;;;;;;;7.33;5.67;;;;;-146.50;100.00;59256.41;5077341;27;45418;-74
2022/12/24 06:02:40;;;;;;;;;7.75;7.75;;;;;-146.50;100.00;59256.41;5076844;27;46987;-74
2022/12/24 06:05:05;;;;;;;;;11.50;6.50;;;;;-146.50;100.00;59256.41;5076738;28;45302;-74
2022/12/24 06:07:31;;;;;;;;;7.33;5.67;;;;;-146.50;100.00;59256.41;5078281;28;45406;-75
2022/12/24 06:09:56;;;;;;;;;9.67;4.00;;;;;-146.50;100.00;59256.41;5078395;28;45480;-75
2022/12/24 06:12:21;;;;;;;;;7.00;4.33;;;;;-146.50;100.00;59256.41;5077745;28;45921;-75
2022/12/24 06:14:47;;;;;;;;;7.67;3.00;;;;;-146.50;100.00;59256.41;5078459;27;45393;-75
2022/12/24 06:17:12;;;;;;;;;9.50;4.75;;;;;-146.50;100.00;59256.41;5079333;27;45353;-74
2022/12/24 06:19:37;;;;;;;;;8.00;4.67;;;;;-146.50;100.00;59256.41;5078163;27;45283;-74
2022/12/24 06:22:03;;;;;;;;;7.25;4.25;;;;;-146.50;100.00;59256.41;5078183;27;45922;-74
2022/12/24 06:24:28;;;;;;;;;8.67;3.67;;;;;-146.50;100.00;59256.41;5078031;28;45654;-75
2022/12/24 06:26:53;;;;;;;;;12.00;5.75;;;;;-146.50;100.00;59256.41;5078231;27;45637;-75
2022/12/24 06:29:19;;;;;;;;;9.50;7.00;;;;;-146.50;100.00;59256.41;5077765;27;45351;-74
2022/12/24 06:31:44;;;;;;;;;3.33;3.00;;;;;-146.50;100.00;59256.41;5077533;27;45377;-75
2022/12/24 06:34:09;;;;;;;;;4.75;4.00;;;;;-146.50;100.00;59256.41;5077655;27;45337;-75
2022/12/24 06:36:35;;;;;;;;;3.67;2.67;;;;;-146.50;100.00;59256.41;5076368;28;45370;-75
2022/12/24 06:39:00;;;;;;;;;6.50;6.25;;;;;-146.50;100.00;59256.41;5076905;28;45582;-75
2022/12/24 06:41:26;;;;;;;;;9.67;4.00;;;;;-146.50;100.00;59256.41;5077726;27;45459;-74
2022/12/24 06:43:52;;;;;;;;;7.33;6.00;;;;;-146.50;100.00;59256.41;5077429;27;45392;-75
2022/12/24 06:46:18;;;;;;;;;4.25;3.75;;;;;-146.50;100.00;59256.41;5077870;27;45341;-75
2022/12/24 06:48:44;;;;;;;;;8.50;5.00;;;;;-146.50;100.00;59256.41;5078222;27;45876;-75
2022/12/24 06:51:11;;;;;;;;;4.33;2.67;;;;;-146.50;100.00;59256.41;5076202;28;45579;-75
2022/12/24 06:53:36;;;;;;;;;2.67;2.67;;;;;-146.50;100.00;59256.41;5078114;28;45371;-75
2022/12/24 06:56:07;;;;;;;;;4.00;4.00;;;;;-146.50;100.00;59256.41;5077260;28;45389;-75
2022/12/24 06:58:34;;;;;;;;;2.33;1.00;;;;;-146.50;100.00;59256.41;5078665;27;45499;-74
2022/12/24 07:01:04;;;;;;;;;5.25;3.50;;;;;-146.50;100.00;59256.41;5076420;28;48353;-75
2022/12/24 07:03:31;;;;;;;;;10.00;3.00;;;;;-146.50;100.00;59256.41;5078839;27;45434;-75
2022/12/24 07:05:57;;;;;;;;;6.75;3.00;;;;;-146.50;100.00;59256.41;5077772;28;45393;-75
2022/12/24 07:08:22;;;;;;;;;6.75;6.00;;;;;-146.50;100.00;59256.41;5077167;27;45340;-74
2022/12/24 07:10:49;;;;;;;;;4.00;3.25;;;;;-146.50;100.00;59256.41;5076941;27;45424;-75
2022/12/24 07:13:15;;;;;;;;;3.75;3.75;;;;;-146.50;100.00;59256.41;5076592;27;45391;-75
2022/12/24 07:15:40;;;;;;;;;4.75;3.50;;;;;-146.50;100.00;59256.41;5077286;27;45273;-74
2022/12/24 07:18:06;;;;;;;;;7.00;5.50;;;;;-146.50;100.00;59256.41;5077484;27;45457;-73
2022/12/24 07:20:32;;;;;;;;;3.00;3.00;;;;;-146.50;100.00;59256.41;5076861;27;47493;-74
2022/12/24 07:22:58;;;;;;;;;4.00;2.00;;;;;-146.50;100.00;59256.41;5075690;28;45331;-74
2022/12/24 07:25:24;;;;;;;;;8.50;2.75;;;;;-146.50;100.00;59256.41;5077025;27;45379;-74
2022/12/24 07:27:49;;;;;;;;;5.00;3.00;;;;;-146.50;100.00;59256.41;5077024;27;45483;-73
2022/12/24 07:30:15;;;;;;;;;3.50;3.50;;;;;-146.50;100.00;59256.41;5076580;27;45914;-74
2022/12/24 07:32:40;;;;;;;;;4.00;2.00;;;;;-146.50;100.00;59256.41;5076801;27;45480;-73
2022/12/24 07:35:06;;;;;;;;;4.25;3.75;;;;;-146.50;100.00;59256.41;5076675;27;45378;-73
2022/12/24 07:37:31;;;;;;;;;3.00;2.00;;;;;-146.50;100.00;59256.41;5075729;28;45395;-73
2022/12/24 07:39:57;;;;;;;;;4.33;1.00;;;;;-146.50;100.00;59256.41;5076761;27;45998;-73
2022/12/24 07:42:22;;;;;;;;;3.00;2.00;;;;;-146.50;100.00;59256.41;5076829;27;45357;-74
2022/12/24 07:44:47;;;;;;;;;2.00;1.00;;;;;-146.50;100.00;59256.41;5076801;27;45365;-74
2022/12/24 07:47:13;;;;;;;;;3.33;2.00;;;;;-146.50;100.00;59256.41;5076656;28;45402;-73
2022/12/24 07:49:38;;;;;;;;;4.50;2.25;;;;;-146.50;100.00;59256.41;5075658;28;48222;-74
2022/12/24 07:52:04;;;;;;;;;2.00;1.00;;;;;-146.50;100.00;59256.41;5075385;28;45345;-74
2022/12/24 07:54:29;;;;;;;;;6.67;4.00;;;;;-146.50;100.00;59256.41;5076660;28;45512;-73
2022/12/24 07:56:54;;;;;;;;;2.67;2.67;;;;;-146.50;100.00;59256.41;5076910;28;45445;-73
2022/12/24 07:59:20;;;;;;;;;3.67;1.00;;;;;-146.50;100.00;59256.41;5076587;27;46247;-73
2022/12/24 08:01:46;;;;;;;;;4.75;1.00;;;;;-146.50;100.00;59256.41;5075926;27;45432;-73
2022/12/24 08:04:11;;;;;;;;;2.00;2.00;;;;;-146.50;100.00;59256.41;5076719;27;45401;-73
2022/12/24 08:06:36;;;;;;;;;4.67;1.67;;;;;-146.50;100.00;59256.41;5076358;27;45323;-73
2022/12/24 08:09:02;;;;;;;;;2.00;2.00;;;;;-146.50;100.00;59256.41;5075973;27;45413;-73
2022/12/24 08:11:28;;;;;;;;;1.67;1.67;;;;;-146.50;100.00;59256.41;5076661;28;45366;-74
2022/12/24 08:13:53;;;;;;;;;3.00;1.33;;;;;-146.50;100.00;59256.41;5075825;27;45749;-73
2022/12/24 08:16:19;;;;;;;;;5.00;2.33;;;;;-146.50;100.00;59256.41;5076109;27;45607;-74
2022/12/24 08:18:44;;;;;;;;;2.67;2.00;;;;;-146.50;100.00;59256.41;5075655;27;46264;-73
2022/12/24 08:21:09;;;;;;;;;2.00;2.00;;;;;-146.50;100.00;59256.41;5075971;27;45540;-73
2022/12/24 08:23:36;;;;;;;;;5.00;3.33;;;;;-146.50;100.00;59256.41;5076305;27;45329;-75
2022/12/24 08:26:01;;;;;;;;;2.00;1.00;;;;;-146.50;100.00;59256.41;5076189;28;45643;-75
2022/12/24 08:28:28;;;;;;;;;2.00;2.00;;;;;-146.50;100.00;59256.41;5076268;27;46549;-75
2022/12/24 08:30:53;;;;;;;;;1.67;1.67;;;;;-146.50;100.00;59256.41;5076004;27;45491;-75
2022/12/24 08:33:21;;;;;;;;;2.00;2.00;;;;;-146.50;100.00;59256.41;5074477;28;45405;-75
2022/12/24 08:35:48;;;;;;;;;1.33;1.33;;;;;-146.50;100.00;59256.41;5075605;27;45355;-75
2022/12/24 08:38:13;;;;;;;;;2.33;1.00;;;;;-146.50;100.00;59256.41;5075499;28;45305;-75
2022/12/24 08:40:38;;;;;;;;;2.00;2.00;;;;;-146.50;100.00;59256.41;5075617;28;45336;-75
2022/12/24 08:43:04;;;;;;;;;4.00;1.67;;;;;-146.50;100.00;59256.41;5075656;27;45514;-75
2022/12/24 08:45:29;;;;;;;;;3.00;3.00;;;;;-146.50;100.00;59256.41;5075475;28;45615;-75
2022/12/24 08:47:54;;;;;;;;;3.67;2.33;;;;;-146.50;100.00;59256.41;5076031;28;46284;-75
2022/12/24 08:50:20;;;;;;;;;3.67;2.00;;;;;-146.50;100.00;59256.41;5075321;28;45313;-75
2022/12/24 08:52:45;;;;;;;;;2.00;1.00;;;;;-146.50;100.00;59256.41;5075604;28;45297;-75
2022/12/24 08:55:10;;;;;;;;;2.00;2.00;;;;;-146.50;100.00;59256.41;5076010;27;45548;-75
2022/12/24 08:57:36;;;;;;;;;2.33;2.33;;;;;-146.50;100.00;59256.41;5075665;28;45574;-75
2022/12/24 09:00:06;;;;;;;;;3.00;3.00;;;;;-146.50;100.00;59256.41;5075825;27;45311;-75
2022/12/24 09:02:31;;;;;;;;;4.00;4.00;;;;;-146.50;100.00;59256.41;5075673;27;45491;-75
2022/12/24 09:04:57;;;;;;;;;5.00;3.00;;;;;-146.50;100.00;59256.41;5076041;27;45370;-75
2022/12/24 09:07:23;;;;;;;;;6.33;4.00;;;;;-146.50;100.00;59256.41;5074259;28;45373;-75
2022/12/24 09:09:48;;;;;;;;;4.67;2.33;;;;;-146.50;100.00;59256.41;5074307;28;45390;-75
2022/12/24 09:12:13;;;;;;;;;5.00;1.33;;;;;-146.50;100.00;59256.41;5075459;27;45507;-75
2022/12/24 09:14:39;;;;;;;;;3.25;2.50;;;;;-146.50;100.00;59256.41;5074443;28;45568;-75
2022/12/24 09:17:04;;;;;;;;;9.25;6.25;;;;;-146.50;100.00;59256.41;5075081;27;47227;-75
2022/12/24 09:19:29;;;;;;;;;8.50;6.00;;;;;-146.50;100.00;59256.41;5075220;27;45380;-75
2022/12/24 09:21:55;;;;;;;;;5.00;3.00;;;;;-146.50;100.00;59256.41;5074593;27;45475;-75
2022/12/24 09:24:20;;;;;;;;;3.00;2.67;;;;;-146.50;100.00;59256.41;5073899;28;45426;-75
2022/12/24 09:26:48;;;;;;;;;4.75;4.75;;;;;-146.50;100.00;59256.41;5074860;27;45985;-74
2022/12/24 09:29:14;;;;;;;;;2.00;2.00;;;;;-146.50;100.00;59256.41;5073943;27;45456;-74
2022/12/24 09:31:40;;;;;;;;;3.00;2.25;;;;;-146.50;100.00;59256.41;5074963;27;45821;-74
2022/12/24 09:34:06;;;;;;;;;4.00;4.00;;;;;-146.50;100.00;59256.41;5074278;27;45420;-75
2022/12/24 09:36:33;;;;;;;;;1.00;1.00;;;;;-146.50;100.00;59256.41;5073700;28;48624;-74
2022/12/24 09:38:58;;;;;;;;;3.00;3.00;;;;;-146.50;100.00;59256.41;5075115;27;45217;-74
2022/12/24 09:41:39;;;;;;;;;4.25;4.25;;;;;-146.50;100.00;59256.41;5074046;28;45470;-73
2022/12/24 09:44:42;;;;;;;;;3.75;2.75;;;;;-146.50;100.00;59256.41;5074814;28;45436;-73
2022/12/24 09:47:25;;;;;;;;;8.50;4.25;;;;;-146.50;100.00;59256.41;5054267;28;46331;-73
2022/12/24 09:49:55;;;;;;;;;3.75;3.75;;;;;-146.50;100.00;59256.41;5053844;28;45527;-74
2022/12/24 09:52:37;;;;;;;;;4.00;3.00;;;;;-146.50;100.00;59256.41;5054818;28;45479;-74
2022/12/24 09:55:22;;;;;;;;;1.00;1.00;;;;;-146.50;100.00;59256.41;5054418;28;45412;-73
2022/12/24 09:57:51;;;;;;;;;1.00;1.00;;;;;-146.50;100.00;59256.41;5070910;28;45584;-73
2022/12/24 10:00:37;;;;;;;;;2.00;2.00;;;;;-146.50;100.00;59256.41;5074730;27;45305;-74
2022/12/24 10:03:15;;;;;;;;;1.33;1.00;;;;;-146.50;100.00;59256.41;5074698;27;45191;-73
2022/12/24 10:05:44;;;;;;;;;1.67;1.00;;;;;-146.50;100.00;59256.41;5074807;27;45374;-73
2022/12/24 10:08:25;;;;;;;;;3.00;2.00;;;;;-146.50;100.00;59256.41;5074737;27;46295;-74
2022/12/24 10:11:09;;;;;;;;;4.67;1.00;;;;;-146.50;100.00;59256.41;5075066;27;45696;-73
2022/12/24 10:14:07;;;;;;;;;3.33;1.67;;;;;-146.50;100.00;59256.41;5074447;27;45319;-73
2022/12/24 10:16:53;;;;;;;;;1.33;1.33;;;;;-146.50;100.00;59256.41;5052861;28;45549;-74
2022/12/24 10:19:27;;;;;;;;;1.00;1.00;;;;;-146.50;100.00;59256.41;5052926;28;45489;-74
2022/12/24 10:21:53;;;;;;;;;3.00;1.00;;;;;-146.50;100.00;59256.41;5053781;28;45513;-74
2022/12/24 10:24:18;;;;;;;;;1.67;1.00;;;;;-146.50;100.00;59256.41;5054021;28;45407;-74
2022/12/24 10:26:47;;;;;;;;;1.00;1.00;;;;;-146.50;100.00;59256.41;5054147;28;45470;-74
2022/12/24 10:29:19;;;;;;;;;3.00;3.00;;;;;-146.50;100.00;59256.41;5052656;28;45401;-74
2022/12/24 10:32:06;;;;;;;;;1.00;1.00;;;;;-146.50;100.00;59256.41;5051400;28;45493;-74
2022/12/24 10:34:40;;;;;;;;;5.33;2.67;;;;;-146.50;100.00;59256.41;5051893;28;45584;-74
2022/12/24 10:37:09;;;;;;;;;4.00;1.67;;;;;-146.50;100.00;59256.41;5051832;28;45478;-74
2022/12/24 10:39:34;;;;;;;;;4.00;3.00;;;;;-146.50;100.00;59256.41;5051891;28;47225;-75
2022/12/24 10:42:00;;;;;;;;;2.33;1.00;;;;;-146.50;100.00;59256.41;5053542;28;45592;-73
2022/12/24 10:44:30;;;;;;;;;3.00;3.00;;;;;-146.50;100.00;59256.41;5053866;28;45465;-74
2022/12/24 10:46:56;;;;;;;;;1.00;1.00;;;;;-146.50;100.00;59256.41;5054257;28;45422;-74
2022/12/24 10:49:29;;;;;;;;;2.00;1.00;;;;;-146.50;100.00;59256.41;5053642;28;45475;-73
2022/12/24 10:52:11;;;;;;;;;1.00;0.67;;;;;-146.50;100.00;59256.41;5055821;28;45459;-73
2022/12/24 10:55:10;;;;;;;;;1.00;1.00;;;;;-146.50;100.00;59256.41;5057533;28;45511;-74
2022/12/24 10:57:37;;;;;;;;;1.00;1.00;;;;;-146.50;100.00;59256.41;5071743;28;45540;-73
2022/12/24 11:00:05;;;;;;;;;1.33;1.33;;;;;-146.50;100.00;59256.41;5077282;28;46439;-73
2022/12/24 11:02:34;;;;;;;;;4.00;2.33;;;;;-146.50;100.00;59256.41;5076549;28;45306;-74
2022/12/24 11:05:02;;;;;;;;;1.33;1.33;;;;;-146.50;100.00;59256.41;5077525;27;45300;-73
2022/12/24 11:07:30;;;;;;;;;2.00;2.00;;;;;-146.50;100.00;59256.41;5077729;27;45349;-73
2022/12/24 11:10:01;;;;;;;;;2.00;2.00;;;;;-146.50;100.00;59256.41;5076899;28;45293;-73
2022/12/24 11:12:39;;;;;;;;;1.00;1.00;;;;;-146.50;100.00;59256.41;5077060;27;45504;-73
2022/12/24 11:15:18;;;;;;;;;2.00;2.00;;;;;-146.50;100.00;59256.41;5077006;27;45419;-73
2022/12/24 11:18:03;;;;;;;;;3.00;3.00;;;;;-146.50;100.00;59256.41;5075872;27;45397;-73
2022/12/24 11:20:31;;;;;;;;;3.00;0.00;;;;;-146.50;100.00;59256.41;5076405;27;45363;-73
2022/12/24 11:22:58;;;;;;;;;2.00;1.00;;;;;-146.50;100.00;59256.41;5077047;27;45270;-73
2022/12/24 11:25:27;;;;;;;;;3.00;1.00;;;;;-146.50;100.00;59256.41;5077370;27;45291;-72
2022/12/24 11:27:54;;;;;;;;;1.33;1.00;;;;;-146.50;100.00;59256.41;5077059;27;45380;-73
2022/12/24 11:30:30;;;;;;;;;3.00;2.00;;;;;-146.50;100.00;59256.41;5076498;27;45547;-74